Time;durP1;ratioP1;P1;durP2;ratioP2;P2;SDS_P1;SDS_P2;PMS_P1;PMS_P2;Temp;Humidity;BMP_temperature;BMP_pressure;BME280_temperature;BME280_humidity;BME280_pressure;Samples;Min_cycle;Max_cycle;Signal;HPM_P1;HPM_P2
2022/07/08 00:00:59;;;;;;;7.82;1.17;;;14.60;99.90;;;;;;5061340;28;20060;-88
2022/07/08 00:03:25;;;;;;;6.95;1.33;;;14.60;99.90;;;;;;5064538;28;20548;-88
2022/07/08 00:05:50;;;;;;;8.05;1.42;;;14.60;99.90;;;;;;5101598;28;20058;-90
2022/07/08 00:08:16;;;;;;;7.82;1.75;;;14.60;99.90;;;;;;5072208;28;20059;-89
2022/07/08 00:10:42;;;;;;;11.35;1.23;;;14.60;99.90;;;;;;5104420;28;20049;-89
2022/07/08 00:13:07;;;;;;;7.95;1.50;;;14.60;99.90;;;;;;5074264;28;20045;-89
2022/07/08 00:15:36;;;;;;;9.38;1.40;;;14.50;99.90;;;;;;5077702;27;20488;-89
2022/07/08 00:18:02;;;;;;;11.65;1.63;;;14.50;99.90;;;;;;5073207;28;20088;-89
2022/07/08 00:20:29;;;;;;;7.25;1.30;;;14.50;99.90;;;;;;5073124;28;20048;-88
2022/07/08 00:22:54;;;;;;;8.07;1.50;;;14.40;99.90;;;;;;5060922;28;20049;-89
2022/07/08 00:25:20;;;;;;;9.77;1.50;;;14.50;99.90;;;;;;5065921;28;20041;-87
2022/07/08 00:27:46;;;;;;;8.63;1.13;;;14.40;99.90;;;;;;5074067;28;20098;-89
2022/07/08 00:30:12;;;;;;;8.20;1.80;;;14.40;99.90;;;;;;5069428;28;20056;-88
2022/07/08 00:32:38;;;;;;;9.15;1.48;;;14.40;99.90;;;;;;5065465;28;20561;-88
2022/07/08 00:35:07;;;;;;;7.20;1.50;;;14.40;99.90;;;;;;5097897;28;20045;-89
2022/07/08 00:37:33;;;;;;;8.65;1.30;;;14.40;99.90;;;;;;5092926;28;20428;-88
2022/07/08 00:39:59;;;;;;;9.52;1.60;;;14.40;99.90;;;;;;5056237;28;20178;-88
2022/07/08 00:42:24;;;;;;;5.47;1.13;;;14.40;99.90;;;;;;5072497;28;20087;-89
2022/07/08 00:44:50;;;;;;;6.60;1.42;;;14.40;99.90;;;;;;5074396;28;20067;-88
2022/07/08 00:47:18;;;;;;;6.18;1.30;;;14.30;99.90;;;;;;5072386;28;20040;-89
2022/07/08 00:49:44;;;;;;;6.07;1.70;;;14.30;99.90;;;;;;5109242;28;20044;-88
2022/07/08 00:52:10;;;;;;;9.70;2.03;;;14.30;99.90;;;;;;5066940;28;20056;-87
2022/07/08 00:54:37;;;;;;;8.85;1.60;;;14.20;99.90;;;;;;5060127;28;20069;-89
2022/07/08 00:57:03;;;;;;;10.65;1.27;;;14.20;99.90;;;;;;5069531;28;20090;-87
2022/07/08 00:59:33;;;;;;;6.95;1.83;;;14.20;99.90;;;;;;5072334;28;20144;-88
2022/07/08 01:01:58;;;;;;;11.50;1.55;;;14.10;99.90;;;;;;5063860;28;20040;-88
2022/07/08 01:04:24;;;;;;;7.13;2.05;;;14.00;99.90;;;;;;5067234;28;20108;-88
2022/07/08 01:06:50;;;;;;;10.98;1.65;;;14.00;99.90;;;;;;5070532;28;20066;-88
2022/07/08 01:09:16;;;;;;;6.80;1.65;;;14.00;99.90;;;;;;5079333;28;20048;-87
2022/07/08 01:11:46;;;;;;;8.73;1.45;;;13.90;99.90;;;;;;5086500;28;20033;-87
2022/07/08 01:14:14;;;;;;;7.57;1.65;;;14.00;99.90;;;;;;5092090;28;20070;-88
2022/07/08 01:16:40;;;;;;;7.70;1.48;;;13.90;99.90;;;;;;5129699;27;20064;-89
2022/07/08 01:19:05;;;;;;;9.23;1.85;;;14.00;99.90;;;;;;5092389;28;20048;-88
2022/07/08 01:21:34;;;;;;;11.10;1.30;;;13.90;99.90;;;;;;5091863;28;20231;-88
2022/07/08 01:24:00;;;;;;;12.13;2.35;;;13.90;99.90;;;;;;5096349;27;20041;-87
2022/07/08 01:26:26;;;;;;;8.68;1.20;;;13.90;99.90;;;;;;5097361;28;20040;-87
2022/07/08 01:28:51;;;;;;;9.93;1.67;;;13.90;99.90;;;;;;5095372;28;20021;-89
2022/07/08 01:31:17;;;;;;;10.05;1.50;;;13.80;99.90;;;;;;5089840;28;20025;-89
2022/07/08 01:33:44;;;;;;;7.65;1.30;;;13.80;99.90;;;;;;5113964;27;20104;-90
2022/07/08 01:36:09;;;;;;;9.27;1.52;;;13.70;99.90;;;;;;5071691;28;20090;-89
2022/07/08 01:38:36;;;;;;;7.85;1.25;;;13.70;99.90;;;;;;5076307;28;20056;-88
2022/07/08 01:41:02;;;;;;;12.32;2.05;;;13.60;99.90;;;;;;5071294;28;20043;-90
2022/07/08 01:43:27;;;;;;;8.13;2.20;;;13.60;99.90;;;;;;5060079;28;20148;-88
2022/07/08 01:45:53;;;;;;;5.38;1.05;;;13.60;99.90;;;;;;5100875;28;20078;-88
2022/07/08 01:48:19;;;;;;;5.72;1.10;;;13.60;99.90;;;;;;5076699;28;20062;-86
2022/07/08 01:50:44;;;;;;;11.00;1.52;;;13.50;99.90;;;;;;5072595;28;20039;-88
2022/07/08 01:53:11;;;;;;;9.95;1.42;;;13.60;99.90;;;;;;5071066;28;20607;-88
2022/07/08 01:55:37;;;;;;;10.60;1.42;;;13.60;99.90;;;;;;5077032;28;20048;-89
2022/07/08 01:58:02;;;;;;;8.57;1.65;;;13.60;99.90;;;;;;5075984;28;20128;-88
2022/07/08 02:00:28;;;;;;;7.50;1.45;;;14.30;99.90;;;;;;5068245;28;20052;-88
2022/07/08 02:02:54;;;;;;;9.18;1.92;;;13.60;99.90;;;;;;5098303;28;20053;-89
2022/07/08 02:05:19;;;;;;;6.95;1.10;;;13.60;99.90;;;;;;5072366;28;20561;-88
2022/07/08 02:07:45;;;;;;;10.30;1.80;;;13.60;99.90;;;;;;5097761;28;20040;-88
2022/07/08 02:10:11;;;;;;;9.40;1.40;;;13.60;99.90;;;;;;5059529;27;20045;-89
2022/07/08 02:12:39;;;;;;;9.45;1.50;;;13.50;99.90;;;;;;5056840;28;20052;-89
2022/07/08 02:15:07;;;;;;;6.57;1.30;;;13.50;99.90;;;;;;5060354;28;20036;-87
2022/07/08 02:17:38;;;;;;;6.82;1.70;;;13.50;99.90;;;;;;5075019;28;20131;-88
2022/07/08 02:20:10;;;;;;;9.05;1.10;;;13.40;99.90;;;;;;5059242;28;20476;-89
2022/07/08 02:22:38;;;;;;;9.00;1.58;;;13.30;99.90;;;;;;5067959;28;20044;-87
2022/07/08 02:25:04;;;;;;;9.57;1.40;;;13.30;99.90;;;;;;5060785;28;20045;-88
2022/07/08 02:27:31;;;;;;;6.60;1.85;;;13.30;99.90;;;;;;5076332;28;20041;-88
2022/07/08 02:29:59;;;;;;;8.90;1.20;;;13.20;99.90;;;;;;5087616;28;20064;-89
2022/07/08 02:32:25;;;;;;;7.70;1.55;;;13.20;99.90;;;;;;5067445;28;20089;-89
2022/07/08 02:34:51;;;;;;;11.95;1.80;;;13.20;99.90;;;;;;5105317;28;20040;-88
2022/07/08 02:37:16;;;;;;;7.53;1.40;;;13.10;99.90;;;;;;5075968;28;20056;-88
2022/07/08 02:39:42;;;;;;;11.30;1.90;;;13.10;99.90;;;;;;5061081;28;20056;-89
2022/07/08 02:42:09;;;;;;;6.05;1.48;;;13.10;99.90;;;;;;5071645;28;20076;-88
2022/07/08 02:44:36;;;;;;;5.75;1.48;;;13.10;99.90;;;;;;5102176;27;20045;-89
2022/07/08 02:47:03;;;;;;;10.55;1.65;;;13.00;99.90;;;;;;5068859;28;20060;-89
2022/07/08 02:49:28;;;;;;;8.20;1.77;;;13.00;99.90;;;;;;5069749;28;20052;-89
2022/07/08 02:51:56;;;;;;;8.52;1.73;;;13.00;99.90;;;;;;5094254;28;20041;-89
2022/07/08 02:54:21;;;;;;;9.00;1.48;;;12.90;99.90;;;;;;5100846;28;20066;-88
2022/07/08 02:56:47;;;;;;;7.30;1.58;;;12.90;99.90;;;;;;5064521;28;20032;-89
2022/07/08 02:59:13;;;;;;;7.25;1.33;;;12.90;99.90;;;;;;5053461;28;20052;-88
2022/07/08 03:01:38;;;;;;;9.15;1.35;;;12.90;99.90;;;;;;5094082;28;20052;-89
2022/07/08 03:04:05;;;;;;;9.85;1.52;;;12.90;99.90;;;;;;5070768;28;20076;-88
2022/07/08 03:06:30;;;;;;;12.02;1.73;;;13.30;99.90;;;;;;5065965;28;20036;-87
2022/07/08 03:08:56;;;;;;;9.02;1.88;;;12.90;99.90;;;;;;5065447;28;20515;-88
2022/07/08 03:11:23;;;;;;;8.32;1.45;;;13.50;99.90;;;;;;5054969;28;20051;-88
2022/07/08 03:13:48;;;;;;;8.48;1.92;;;12.90;99.90;;;;;;5054872;28;20049;-87
2022/07/08 03:16:14;;;;;;;7.20;1.63;;;12.90;99.90;;;;;;5073448;28;20490;-88
2022/07/08 03:18:40;;;;;;;9.48;1.63;;;12.90;99.90;;;;;;5068927;28;20045;-88
2022/07/08 03:21:07;;;;;;;6.85;1.42;;;13.00;99.90;;;;;;5062444;28;20040;-88
2022/07/08 03:23:33;;;;;;;9.30;1.50;;;13.00;99.90;;;;;;5069691;28;20032;-88
2022/07/08 03:25:59;;;;;;;10.63;1.60;;;12.90;99.90;;;;;;5071454;28;20404;-87
2022/07/08 03:28:25;;;;;;;14.15;2.13;;;12.90;99.90;;;;;;5053265;28;20078;-88
2022/07/08 03:30:51;;;;;;;8.30;1.60;;;12.90;99.90;;;;;;5058667;28;20049;-88
2022/07/08 03:33:16;;;;;;;5.47;1.45;;;12.80;99.90;;;;;;5063163;28;20098;-87
2022/07/08 03:35:45;;;;;;;10.88;1.50;;;12.80;99.90;;;;;;5071974;28;20055;-87
2022/07/08 03:38:10;;;;;;;11.30;2.08;;;12.80;99.90;;;;;;5096578;27;20486;-86
2022/07/08 03:43:21;;;;;;;7.55;1.58;;;12.70;99.90;;;;;;5102930;28;20108;-88
2022/07/08 03:45:47;;;;;;;10.95;1.50;;;12.70;99.90;;;;;;5060661;28;20094;-87
2022/07/08 03:48:13;;;;;;;8.70;2.17;;;12.70;99.90;;;;;;5067986;28;20090;-88
2022/07/08 03:50:39;;;;;;;5.53;1.30;;;12.60;99.90;;;;;;5066289;28;20045;-88
2022/07/08 03:53:06;;;;;;;8.20;2.13;;;12.60;99.90;;;;;;5056188;28;20095;-88
2022/07/08 03:55:32;;;;;;;7.68;1.63;;;12.60;99.90;;;;;;5066216;28;20041;-88
2022/07/08 03:58:00;;;;;;;9.90;2.55;;;12.60;99.90;;;;;;5085568;28;20041;-88
2022/07/08 04:00:27;;;;;;;7.90;1.55;;;12.60;99.90;;;;;;5067300;28;20075;-88
2022/07/08 04:02:53;;;;;;;10.20;2.05;;;12.60;99.90;;;;;;5072061;28;20127;-88
2022/07/08 04:05:21;;;;;;;7.15;1.60;;;13.10;99.90;;;;;;5069796;28;20049;-88
2022/07/08 04:07:48;;;;;;;8.27;1.95;;;12.50;99.90;;;;;;5091537;28;20123;-89
2022/07/08 04:10:18;;;;;;;8.05;1.35;;;12.50;99.90;;;;;;5058321;28;20048;-88
2022/07/08 04:12:47;;;;;;;6.18;1.50;;;12.50;99.90;;;;;;5056316;28;20731;-88
2022/07/08 04:15:13;;;;;;;11.45;1.90;;;12.50;99.90;;;;;;5053071;28;20083;-88
2022/07/08 04:17:42;;;;;;;9.63;2.78;;;12.60;99.90;;;;;;5063909;28;20052;-89
2022/07/08 04:20:08;;;;;;;6.88;1.70;;;12.60;99.90;;;;;;5071398;28;20118;-88
2022/07/08 04:22:34;;;;;;;7.05;1.80;;;12.60;99.90;;;;;;5065129;28;20052;-87
2022/07/08 04:25:03;;;;;;;6.68;1.80;;;12.60;99.90;;;;;;5061746;28;20052;-89
2022/07/08 04:27:28;;;;;;;9.68;1.88;;;12.60;99.90;;;;;;5059697;28;20209;-88
2022/07/08 04:29:54;;;;;;;9.65;1.80;;;12.60;99.90;;;;;;5062251;28;20120;-87
2022/07/08 04:32:19;;;;;;;9.95;1.50;;;12.60;99.90;;;;;;5070984;28;20640;-87
2022/07/08 04:34:48;;;;;;;10.15;2.35;;;12.90;99.90;;;;;;5070838;28;20615;-89
2022/07/08 04:37:15;;;;;;;11.15;1.73;;;12.60;99.90;;;;;;5070698;28;20052;-89
2022/07/08 04:39:41;;;;;;;10.15;1.90;;;12.70;99.90;;;;;;5064530;28;20041;-88
2022/07/08 04:42:08;;;;;;;8.48;1.60;;;12.70;99.90;;;;;;5064160;28;20043;-86
2022/07/08 04:44:33;;;;;;;9.63;1.90;;;12.70;99.90;;;;;;5071132;28;20085;-88
2022/07/08 04:46:59;;;;;;;11.00;1.92;;;12.70;99.90;;;;;;5066316;28;20053;-87
2022/07/08 04:49:25;;;;;;;7.50;1.77;;;12.70;99.90;;;;;;5071736;28;20049;-88
2022/07/08 04:51:50;;;;;;;9.38;1.98;;;12.80;99.90;;;;;;5063589;28;20148;-87
2022/07/08 04:54:16;;;;;;;8.63;1.67;;;12.80;99.90;;;;;;5105304;27;20472;-87
2022/07/08 04:56:42;;;;;;;11.27;2.63;;;12.90;99.90;;;;;;5091543;28;20415;-86
2022/07/08 04:59:08;;;;;;;10.48;2.80;;;13.00;99.90;;;;;;5062962;28;20385;-85
2022/07/08 05:01:34;;;;;;;9.10;1.83;;;13.70;99.90;;;;;;5071366;28;20048;-86
2022/07/08 05:03:59;;;;;;;12.63;3.00;;;13.20;99.90;;;;;;5064741;28;20487;-89
2022/07/08 05:06:25;;;;;;;8.45;1.95;;;13.30;99.90;;;;;;5070873;28;20104;-87
2022/07/08 05:08:51;;;;;;;8.57;1.80;;;13.50;99.90;;;;;;5100742;28;20541;-85
2022/07/08 05:11:16;;;;;;;8.20;1.45;;;13.60;99.90;;;;;;5071917;28;20052;-87
2022/07/08 05:13:42;;;;;;;10.68;2.05;;;13.70;99.90;;;;;;5061699;28;20075;-87
2022/07/08 05:16:07;;;;;;;11.05;2.00;;;13.80;99.90;;;;;;5098510;28;20052;-86
2022/07/08 05:18:33;;;;;;;9.98;2.30;;;13.90;99.90;;;;;;5104710;28;20080;-87
2022/07/08 05:20:58;;;;;;;11.40;1.95;;;14.00;99.90;;;;;;5057499;28;20078;-87
2022/07/08 05:23:24;;;;;;;9.00;1.77;;;14.10;99.90;;;;;;5084918;28;20056;-86
2022/07/08 05:25:50;;;;;;;10.20;1.65;;;14.20;99.90;;;;;;5087487;28;20054;-88
2022/07/08 05:28:16;;;;;;;8.90;2.15;;;14.30;99.90;;;;;;5060912;28;20056;-87
2022/07/08 05:30:41;;;;;;;10.55;2.20;;;14.30;99.90;;;;;;5055567;28;20067;-91
2022/07/08 05:33:07;;;;;;;15.15;2.08;;;14.30;99.90;;;;;;5070782;28;20064;-91
2022/07/08 05:35:33;;;;;;;9.48;2.03;;;14.30;99.90;;;;;;5071038;28;20140;-90
2022/07/08 05:37:58;;;;;;;13.35;2.20;;;14.20;99.90;;;;;;5065091;28;20117;-90
2022/07/08 05:40:27;;;;;;;9.70;1.80;;;14.20;99.90;;;;;;5055772;28;20037;-92
2022/07/08 05:42:52;;;;;;;17.00;2.17;;;14.20;99.90;;;;;;5052125;28;20547;-89
2022/07/08 05:45:21;;;;;;;11.02;2.20;;;14.20;99.90;;;;;;5061292;28;20040;-92
2022/07/08 05:47:47;;;;;;;12.35;2.80;;;14.20;99.90;;;;;;5068270;28;20099;-90
2022/07/08 05:50:21;;;;;;;9.57;1.80;;;14.40;99.90;;;;;;5054714;28;20045;-86
2022/07/08 05:52:46;;;;;;;9.25;1.85;;;14.40;99.90;;;;;;5067924;28;20048;-84
2022/07/08 05:55:12;;;;;;;16.05;2.17;;;14.50;99.90;;;;;;5095883;28;20466;-86
2022/07/08 05:57:37;;;;;;;14.23;2.38;;;14.60;99.90;;;;;;5078106;28;20036;-89
2022/07/08 06:00:05;;;;;;;12.60;2.00;;;14.60;99.90;;;;;;5065024;28;20075;-86
2022/07/08 06:02:30;;;;;;;7.63;1.50;;;14.70;99.90;;;;;;5051682;28;20051;-86
2022/07/08 06:04:56;;;;;;;8.82;1.98;;;14.90;99.90;;;;;;5071448;28;20052;-86
2022/07/08 06:07:21;;;;;;;10.25;2.40;;;15.10;99.90;;;;;;5070199;28;20044;-85
2022/07/08 06:09:47;;;;;;;10.57;1.92;;;15.20;99.90;;;;;;5072606;28;20127;-85
2022/07/08 06:12:13;;;;;;;13.15;2.35;;;15.30;99.90;;;;;;5071829;28;20041;-86
2022/07/08 06:14:38;;;;;;;10.90;1.60;;;15.40;99.90;;;;;;5061282;28;20049;-85
2022/07/08 06:17:04;;;;;;;8.18;1.85;;;15.50;99.90;;;;;;5073104;28;20079;-88
2022/07/08 06:19:29;;;;;;;10.55;1.90;;;15.60;99.90;;;;;;5065122;28;20110;-90
2022/07/08 06:21:56;;;;;;;13.85;2.50;;;15.70;99.90;;;;;;5066948;28;20072;-88
2022/07/08 06:24:22;;;;;;;13.82;2.00;;;15.80;99.90;;;;;;5100902;27;20048;-92
2022/07/08 06:26:48;;;;;;;10.07;2.10;;;15.90;99.90;;;;;;5065323;28;20045;-89
2022/07/08 06:29:14;;;;;;;7.55;1.77;;;15.90;99.90;;;;;;5065161;28;20492;-88
2022/07/08 06:31:39;;;;;;;10.13;1.77;;;16.00;99.90;;;;;;5055499;28;20036;-93
2022/07/08 06:34:05;;;;;;;13.23;2.20;;;16.10;99.90;;;;;;5061514;28;20055;-91
2022/07/08 06:36:32;;;;;;;12.25;2.10;;;16.10;99.90;;;;;;5063643;28;20053;-92
2022/07/08 06:38:58;;;;;;;11.55;1.98;;;16.20;99.90;;;;;;5064165;28;20045;-90
2022/07/08 06:41:24;;;;;;;11.38;2.20;;;16.30;99.90;;;;;;5055001;28;20484;-91
2022/07/08 06:43:50;;;;;;;13.60;1.80;;;16.40;99.90;;;;;;5101149;27;20056;-91
2022/07/08 06:46:15;;;;;;;11.23;1.88;;;16.40;99.90;;;;;;5096316;28;20047;-91
2022/07/08 06:48:41;;;;;;;11.93;2.30;;;16.50;99.90;;;;;;5059766;28;20049;-92
2022/07/08 06:51:07;;;;;;;11.23;1.70;;;16.60;99.90;;;;;;5070724;28;20534;-90
2022/07/08 06:56:17;;;;;;;11.15;2.00;;;16.70;99.90;;;;;;5071394;28;20053;-92
2022/07/08 06:58:42;;;;;;;12.77;2.33;;;16.80;99.90;;;;;;5063314;28;20498;-91
2022/07/08 07:01:09;;;;;;;14.70;2.10;;;16.80;99.90;;;;;;5062894;28;20097;-87
2022/07/08 07:03:35;;;;;;;11.82;1.88;;;16.90;99.90;;;;;;5084848;28;20128;-90
2022/07/08 07:06:00;;;;;;;8.68;2.15;;;17.00;99.90;;;;;;5062885;28;20108;-92
2022/07/08 07:08:26;;;;;;;9.90;1.90;;;17.10;99.90;;;;;;5052926;28;20503;-90
2022/07/08 07:10:51;;;;;;;12.60;1.70;;;17.20;99.90;;;;;;5053102;28;20449;-91
2022/07/08 07:13:17;;;;;;;13.57;1.85;;;17.20;99.90;;;;;;5050852;28;20057;-89
2022/07/08 07:15:42;;;;;;;7.60;2.45;;;17.30;99.90;;;;;;5085040;28;20048;-90
2022/07/08 07:18:08;;;;;;;9.85;1.52;;;17.30;99.90;;;;;;5087570;28;20409;-90
2022/07/08 07:20:34;;;;;;;10.65;2.00;;;17.30;99.90;;;;;;5070986;28;20041;-91
2022/07/08 07:23:00;;;;;;;12.82;1.98;;;17.40;99.90;;;;;;5070621;28;20044;-90
2022/07/08 07:25:25;;;;;;;7.43;1.77;;;17.40;99.90;;;;;;5104810;27;20036;-89
2022/07/08 07:27:51;;;;;;;7.50;1.83;;;17.50;99.90;;;;;;5061189;28;20472;-89
2022/07/08 07:30:16;;;;;;;9.27;2.08;;;17.50;99.90;;;;;;5096439;28;20052;-89
2022/07/08 07:32:42;;;;;;;10.23;1.65;;;17.60;99.90;;;;;;5068166;27;20036;-89
2022/07/08 07:35:08;;;;;;;9.75;1.92;;;17.70;99.90;;;;;;5058784;28;20138;-89
2022/07/08 07:37:37;;;;;;;9.20;1.98;;;17.80;99.90;;;;;;5052566;28;20049;-90
2022/07/08 07:40:04;;;;;;;8.98;1.90;;;17.90;99.90;;;;;;5055087;28;20576;-91
2022/07/08 07:42:30;;;;;;;11.20;1.83;;;17.90;99.90;;;;;;5070764;28;20052;-90
2022/07/08 07:44:55;;;;;;;12.98;2.10;;;18.00;99.90;;;;;;5056993;28;20099;-90
2022/07/08 07:47:21;;;;;;;12.48;1.55;;;18.00;99.90;;;;;;5062671;28;20044;-90
2022/07/08 07:49:46;;;;;;;9.07;1.60;;;18.00;99.90;;;;;;5062335;28;20810;-90
2022/07/08 07:52:12;;;;;;;10.52;2.13;;;18.10;99.90;;;;;;5087684;28;20392;-89
2022/07/08 07:54:38;;;;;;;8.10;1.80;;;18.10;99.90;;;;;;5093756;28;20479;-89
2022/07/08 07:57:03;;;;;;;12.35;2.10;;;18.20;99.90;;;;;;5051078;28;20037;-90
2022/07/08 07:59:29;;;;;;;6.00;1.25;;;18.00;99.90;;;;;;5063373;28;20381;-90
2022/07/08 08:01:55;;;;;;;10.38;1.90;;;18.00;99.90;;;;;;5065648;28;20070;-90
2022/07/08 08:04:21;;;;;;;6.45;1.55;;;18.00;99.90;;;;;;5063451;28;20048;-89
2022/07/08 08:06:47;;;;;;;9.93;1.67;;;18.00;99.90;;;;;;5052903;28;20055;-89
2022/07/08 08:09:12;;;;;;;7.55;1.70;;;18.10;99.90;;;;;;5059136;28;20048;-90
2022/07/08 08:11:38;;;;;;;7.55;1.60;;;18.10;99.90;;;;;;5066610;28;20044;-89
2022/07/08 08:14:03;;;;;;;8.82;1.85;;;18.10;99.90;;;;;;5070458;28;20041;-89
2022/07/08 08:16:29;;;;;;;12.40;1.98;;;18.10;99.90;;;;;;5055821;28;20033;-90
2022/07/08 08:18:54;;;;;;;5.22;1.23;;;18.20;99.90;;;;;;5061911;28;20067;-90
2022/07/08 08:21:20;;;;;;;6.93;1.48;;;18.30;99.90;;;;;;5051380;28;20468;-90
2022/07/08 08:23:45;;;;;;;6.13;1.60;;;18.20;99.90;;;;;;5070835;28;20411;-89
2022/07/08 08:26:11;;;;;;;11.35;1.88;;;18.30;99.90;;;;;;5065922;28;20044;-88
2022/07/08 08:28:37;;;;;;;5.03;1.65;;;18.30;99.90;;;;;;5055738;28;20037;-88
2022/07/08 08:31:02;;;;;;;7.00;1.60;;;18.40;99.90;;;;;;5058474;28;20461;-87
2022/07/08 08:33:28;;;;;;;8.10;1.60;;;18.40;99.90;;;;;;5055951;28;20057;-89
2022/07/08 08:35:54;;;;;;;7.60;1.92;;;18.50;99.90;;;;;;5092684;27;20493;-90
2022/07/08 08:38:19;;;;;;;6.15;1.40;;;18.50;99.90;;;;;;5056492;28;20033;-89
2022/07/08 08:40:46;;;;;;;10.52;1.77;;;18.60;99.90;;;;;;5062329;28;20060;-90
2022/07/08 08:43:13;;;;;;;10.88;1.63;;;18.70;99.90;;;;;;5069856;28;20043;-90
2022/07/08 08:45:39;;;;;;;9.85;1.88;;;18.60;99.90;;;;;;5056112;27;20530;-89
2022/07/08 08:48:10;;;;;;;8.70;1.90;;;18.60;99.90;;;;;;5069379;28;20041;-88
2022/07/08 08:50:54;;;;;;;10.52;1.60;;;18.60;99.90;;;;;;5052045;28;20041;-89
2022/07/08 08:53:40;;;;;;;8.82;2.25;;;18.50;99.90;;;;;;5049893;28;20041;-89
2022/07/08 08:56:10;;;;;;;7.82;1.90;;;18.60;99.90;;;;;;5067189;28;20080;-89
2022/07/08 08:58:38;;;;;;;9.43;2.00;;;18.60;99.90;;;;;;5064268;28;20124;-89
2022/07/08 09:01:07;;;;;;;8.27;1.70;;;18.60;99.90;;;;;;5058074;28;20045;-90
2022/07/08 09:03:32;;;;;;;5.47;1.52;;;18.70;99.90;;;;;;5050491;28;20094;-89
2022/07/08 09:05:58;;;;;;;5.07;1.70;;;18.80;99.90;;;;;;5067500;28;20048;-87
2022/07/08 09:08:23;;;;;;;10.35;1.75;;;18.90;99.90;;;;;;5053432;28;20048;-89
2022/07/08 09:10:49;;;;;;;8.88;1.80;;;19.00;99.90;;;;;;5083830;28;20561;-90
2022/07/08 09:13:16;;;;;;;7.57;1.80;;;19.10;99.90;;;;;;5053325;28;21757;-90
2022/07/08 09:15:54;;;;;;;8.50;1.75;;;19.10;99.90;;;;;;5071320;28;20388;-89
2022/07/08 09:18:22;;;;;;;6.82;1.95;;;19.10;99.90;;;;;;5101895;28;20044;-89
2022/07/08 09:20:49;;;;;;;7.32;1.65;;;19.10;99.90;;;;;;5065301;28;20040;-89
2022/07/08 09:23:20;;;;;;;7.72;1.42;;;19.20;99.90;;;;;;5050791;28;20045;-89
2022/07/08 09:25:50;;;;;;;8.80;1.70;;;19.30;99.90;;;;;;5061439;28;20079;-90
2022/07/08 09:28:40;;;;;;;12.00;1.98;;;19.40;99.90;;;;;;5062609;28;20048;-89
2022/07/08 09:31:07;;;;;;;8.70;2.03;;;19.40;99.90;;;;;;5050533;28;20075;-89
2022/07/08 09:33:33;;;;;;;8.57;1.88;;;19.50;99.90;;;;;;5052660;28;20101;-89
2022/07/08 09:36:02;;;;;;;5.65;1.40;;;19.50;99.90;;;;;;5055246;28;20408;-89
2022/07/08 09:38:29;;;;;;;7.50;1.70;;;19.50;99.90;;;;;;5061609;28;20162;-90
2022/07/08 09:41:02;;;;;;;7.90;1.80;;;19.50;99.90;;;;;;5073629;28;20169;-89
2022/07/08 09:43:28;;;;;;;8.68;1.58;;;19.50;99.90;;;;;;5074120;28;20077;-89
2022/07/08 09:45:54;;;;;;;9.63;1.52;;;19.60;99.90;;;;;;5074485;28;20059;-89
2022/07/08 09:48:24;;;;;;;5.93;1.73;;;19.60;99.90;;;;;;5065691;28;20391;-91
2022/07/08 09:50:49;;;;;;;5.70;1.40;;;19.60;99.90;;;;;;5053917;28;20481;-91
2022/07/08 09:53:21;;;;;;;6.30;1.63;;;19.70;99.90;;;;;;5107215;27;20047;-90
2022/07/08 09:55:51;;;;;;;6.90;1.75;;;19.80;99.90;;;;;;5053971;28;20041;-90
2022/07/08 09:58:20;;;;;;;8.20;1.63;;;19.90;99.90;;;;;;5055984;28;20128;-92
2022/07/08 10:00:47;;;;;;;4.68;1.73;;;20.00;99.90;;;;;;5061483;28;20222;-91
2022/07/08 10:03:13;;;;;;;8.10;1.60;;;19.90;99.90;;;;;;5051767;28;20037;-90
2022/07/08 10:05:40;;;;;;;7.75;1.88;;;19.90;99.90;;;;;;5100990;28;20044;-87
2022/07/08 10:08:07;;;;;;;7.03;1.45;;;20.00;99.90;;;;;;5059777;28;20504;-90
2022/07/08 10:10:34;;;;;;;5.07;1.48;;;20.10;99.90;;;;;;5070948;28;20048;-79
2022/07/08 10:13:00;;;;;;;8.77;1.55;;;20.10;99.90;;;;;;5073621;28;20121;-86
2022/07/08 10:15:28;;;;;;;9.32;1.67;;;20.10;99.90;;;;;;5070549;28;20049;-88
2022/07/08 10:17:57;;;;;;;5.45;1.73;;;20.20;99.90;;;;;;5057169;28;20041;-89
2022/07/08 10:20:25;;;;;;;7.88;2.00;;;20.20;99.90;;;;;;5096575;28;20068;-90
2022/07/08 10:22:55;;;;;;;9.45;1.88;;;20.30;99.90;;;;;;5053882;28;20614;-90
2022/07/08 10:25:21;;;;;;;9.85;1.92;;;20.30;99.90;;;;;;5088879;28;20114;-91
2022/07/08 10:27:49;;;;;;;8.23;1.60;;;20.40;99.90;;;;;;5056749;28;20038;-91
2022/07/08 10:30:17;;;;;;;8.20;1.55;;;20.50;99.90;;;;;;5058900;28;20045;-91
2022/07/08 10:32:46;;;;;;;9.15;1.67;;;20.60;99.90;;;;;;5060984;28;20407;-90
2022/07/08 10:35:21;;;;;;;10.10;1.95;;;20.80;99.90;;;;;;5059446;28;20123;-91
2022/07/08 10:37:58;;;;;;;7.93;1.80;;;20.80;99.90;;;;;;5062792;28;20045;-90
2022/07/08 10:40:53;;;;;;;6.22;1.83;;;20.80;99.90;;;;;;5094246;28;20044;-90
2022/07/08 10:43:18;;;;;;;7.65;2.17;;;21.00;99.90;;;;;;5059609;28;20099;-92
2022/07/08 10:46:17;;;;;;;10.57;1.75;;;21.00;99.90;;;;;;5090323;28;20725;-90
2022/07/08 10:48:45;;;;;;;10.80;2.03;;;21.10;99.90;;;;;;5053193;28;20044;-91
2022/07/08 10:51:19;;;;;;;10.15;2.08;;;21.10;99.90;;;;;;5070936;28;20052;-91
2022/07/08 10:54:05;;;;;;;6.97;1.70;;;21.10;99.90;;;;;;5071634;28;20044;-90
2022/07/08 10:56:50;;;;;;;5.60;1.80;;;21.00;99.90;;;;;;5068195;28;20601;-91
2022/07/08 10:59:22;;;;;;;6.57;1.88;;;21.00;99.90;;;;;;5052981;28;20045;-92
2022/07/08 11:01:56;;;;;;;9.43;2.00;;;21.00;99.90;;;;;;5060551;28;20109;-91
2022/07/08 11:04:28;;;;;;;11.45;2.00;;;21.20;99.90;;;;;;5054153;28;20085;-91
2022/07/08 11:07:06;;;;;;;6.38;1.80;;;21.20;99.90;;;;;;5067964;28;20043;-90
2022/07/08 11:09:32;;;;;;;9.05;2.03;;;21.30;99.90;;;;;;5104845;28;20040;-86
2022/07/08 11:11:58;;;;;;;8.90;1.77;;;21.50;99.90;;;;;;5062408;28;20041;-86
2022/07/08 11:14:25;;;;;;;7.10;1.95;;;21.60;99.90;;;;;;5068463;28;20135;-85
2022/07/08 11:16:50;;;;;;;10.30;1.80;;;21.60;99.90;;;;;;5061781;27;20492;-87
2022/07/08 11:19:16;;;;;;;5.03;1.70;;;21.60;99.90;;;;;;5063211;28;20051;-86
2022/07/08 11:21:41;;;;;;;9.27;2.17;;;21.50;99.90;;;;;;5062612;28;20069;-86
2022/07/08 11:24:07;;;;;;;11.02;1.90;;;21.60;99.90;;;;;;5056274;28;20507;-85
2022/07/08 11:26:33;;;;;;;5.38;1.58;;;21.70;99.90;;;;;;5061509;28;20083;-85
2022/07/08 11:28:59;;;;;;;7.18;1.77;;;21.80;99.90;;;;;;5066602;28;20080;-86
2022/07/08 11:31:26;;;;;;;5.93;2.20;;;21.90;99.90;;;;;;5052091;28;20037;-86
2022/07/08 11:33:51;;;;;;;9.73;2.25;;;22.00;99.90;;;;;;5072881;28;20403;-86
2022/07/08 11:36:18;;;;;;;7.38;2.25;;;22.10;99.90;;;;;;5085317;28;20048;-87
2022/07/08 11:38:49;;;;;;;8.15;1.80;;;22.20;99.90;;;;;;5097315;27;20091;-86
2022/07/08 11:41:15;;;;;;;6.38;1.70;;;22.30;99.90;;;;;;5053378;28;20049;-86
2022/07/08 11:43:42;;;;;;;5.63;1.80;;;22.40;99.90;;;;;;5084792;28;20523;-86
2022/07/08 11:46:22;;;;;;;6.72;1.52;;;22.30;99.90;;;;;;5050150;28;20052;-86
2022/07/08 11:48:48;;;;;;;7.57;1.75;;;22.30;99.90;;;;;;5090983;28;20453;-86
2022/07/08 11:51:17;;;;;;;7.25;1.73;;;22.30;99.90;;;;;;5058518;28;20049;-87
2022/07/08 11:53:43;;;;;;;6.05;1.40;;;22.30;99.90;;;;;;5050544;28;20045;-86
2022/07/08 11:56:09;;;;;;;4.22;1.50;;;22.20;99.90;;;;;;5051803;28;20052;-86
2022/07/08 11:58:35;;;;;;;8.48;1.80;;;22.30;99.90;;;;;;5094855;28;20044;-86
2022/07/08 12:01:01;;;;;;;6.63;1.35;;;22.40;99.90;;;;;;5057999;28;20365;-87
2022/07/08 12:03:27;;;;;;;5.78;1.52;;;22.50;99.90;;;;;;5068517;28;20495;-89
2022/07/08 12:05:53;;;;;;;4.95;1.58;;;22.80;99.90;;;;;;5063680;28;20041;-87
2022/07/08 12:08:19;;;;;;;7.30;1.48;;;23.00;99.90;;;;;;5063182;28;20048;-83
2022/07/08 12:10:45;;;;;;;5.10;1.60;;;23.10;99.90;;;;;;5063158;28;20040;-82
2022/07/08 12:13:11;;;;;;;5.35;1.55;;;23.20;99.90;;;;;;5050286;28;20040;-83
2022/07/08 12:15:37;;;;;;;6.57;1.58;;;23.40;99.90;;;;;;5055552;28;20443;-86
2022/07/08 12:18:04;;;;;;;6.53;1.75;;;23.40;99.90;;;;;;5070631;28;20044;-91
2022/07/08 12:20:37;;;;;;;5.68;1.55;;;23.40;99.90;;;;;;5058222;28;20049;-89
2022/07/08 12:23:03;;;;;;;10.33;2.20;;;23.40;99.90;;;;;;5052335;27;20228;-90
2022/07/08 12:25:47;;;;;;;7.50;1.80;;;23.30;99.90;;;;;;5050942;28;20128;-90
2022/07/08 12:28:13;;;;;;;7.22;1.95;;;23.20;99.90;;;;;;5084949;28;20631;-90
2022/07/08 12:30:39;;;;;;;6.80;1.77;;;23.20;99.90;;;;;;5051026;28;20202;-90
2022/07/08 12:33:04;;;;;;;8.15;1.77;;;23.20;99.90;;;;;;5083840;28;20132;-90
2022/07/08 12:35:34;;;;;;;5.90;2.00;;;23.30;99.90;;;;;;5051894;28;20041;-92
2022/07/08 12:38:07;;;;;;;7.88;2.20;;;23.50;99.90;;;;;;5049175;28;20052;-89
2022/07/08 12:40:38;;;;;;;9.23;2.47;;;23.30;99.90;;;;;;5050856;28;20045;-90
2022/07/08 12:43:05;;;;;;;7.68;2.00;;;23.40;99.90;;;;;;5050758;28;20098;-89
2022/07/08 12:45:31;;;;;;;8.35;1.80;;;23.30;99.90;;;;;;5054986;28;20037;-90
2022/07/08 12:47:58;;;;;;;7.35;2.00;;;23.30;99.90;;;;;;5060048;28;20032;-94